Aviation Digital Data Service (ADDS)

Output produced by METARs form (0948 UTC 21 April 2015)
found at http://aviationweather.gov/adds/metars/
 
KYNG 210540Z 2106/2206 24012G20KT P6SM BKN060 
     FM211300 22015G25KT P6SM SCT060 
     FM211600 24020G35KT P6SM BKN060 
     FM212300 24012KT P6SM BKN060